createdAt,value
2023-04-26T00:00:51.671Z,25.42
2023-04-26T00:01:51.664Z,25.45
2023-04-26T00:02:51.808Z,25.45
2023-04-26T00:03:51.864Z,25.43
2023-04-26T00:04:51.906Z,25.43
2023-04-26T00:05:51.799Z,25.46
2023-04-26T00:06:51.699Z,25.45
2023-04-26T00:07:51.705Z,25.46
2023-04-26T00:08:51.895Z,25.48
2023-04-26T00:09:51.728Z,25.45
2023-04-26T00:10:51.758Z,25.45
2023-04-26T00:11:51.745Z,25.48
2023-04-26T00:12:51.780Z,25.45
2023-04-26T00:13:51.773Z,25.46
2023-04-26T00:14:51.778Z,25.46
2023-04-26T00:15:51.876Z,25.46
2023-04-26T00:16:51.949Z,25.45
2023-04-26T00:17:51.946Z,25.48
2023-04-26T00:18:52.054Z,25.46
2023-04-26T00:19:51.869Z,25.46
2023-04-26T00:20:51.876Z,25.48
2023-04-26T00:21:51.894Z,25.45
2023-04-26T00:22:51.892Z,25.45
2023-04-26T00:23:51.902Z,25.46
2023-04-26T00:24:51.930Z,25.49
2023-04-26T00:25:51.916Z,25.45
2023-04-26T00:26:51.952Z,25.45
2023-04-26T00:27:51.929Z,25.46
2023-04-26T00:28:52.153Z,25.46
2023-04-26T00:29:51.954Z,25.49
2023-04-26T00:30:51.967Z,25.46
2023-04-26T00:31:52.024Z,25.46
2023-04-26T00:32:51.981Z,25.48
2023-04-26T00:33:51.978Z,25.46
2023-04-26T00:34:51.984Z,25.46
2023-04-26T00:35:52.003Z,25.48
2023-04-26T00:36:51.995Z,25.48
2023-04-26T00:37:51.995Z,25.49
2023-04-26T00:38:52.244Z,25.48
2023-04-26T00:39:52.017Z,25.46
2023-04-26T00:40:52.002Z,25.48
2023-04-26T00:41:52.009Z,25.49
2023-04-26T00:42:52.048Z,25.48
2023-04-26T00:43:52.018Z,25.46
2023-04-26T00:44:52.032Z,25.46
2023-04-26T00:45:52.102Z,25.45
2023-04-26T00:46:52.053Z,25.48
2023-04-26T00:47:52.062Z,25.49
2023-04-26T00:48:52.391Z,25.46
2023-04-26T00:49:52.067Z,25.46
2023-04-26T00:50:52.068Z,25.49
2023-04-26T00:51:52.089Z,25.46
2023-04-26T00:52:52.084Z,25.46
2023-04-26T00:53:52.101Z,25.48
2023-04-26T00:54:52.095Z,25.49
2023-04-26T00:55:52.194Z,25.48
2023-04-26T00:56:52.185Z,25.48
2023-04-26T00:57:52.142Z,25.48
2023-04-26T00:58:52.434Z,25.49
2023-04-26T00:59:52.126Z,25.49
2023-04-26T01:00:52.214Z,25.50
2023-04-26T01:01:52.145Z,25.49
2023-04-26T01:02:52.370Z,25.49
2023-04-26T01:03:52.367Z,25.49
2023-04-26T01:04:52.164Z,25.49
2023-04-26T01:05:52.166Z,25.49
2023-04-26T01:06:52.164Z,25.49
2023-04-26T01:07:52.179Z,25.49
2023-04-26T01:08:52.664Z,25.50
2023-04-26T01:09:52.180Z,25.49
2023-04-26T01:10:52.184Z,25.49
2023-04-26T01:11:52.192Z,25.48
2023-04-26T01:12:52.237Z,25.49
2023-04-26T01:13:52.200Z,25.49
2023-04-26T01:14:52.245Z,25.50
2023-04-26T01:15:52.192Z,25.52
2023-04-26T01:16:52.225Z,25.52
2023-04-26T01:17:52.276Z,25.50
2023-04-26T01:18:52.716Z,25.50
2023-04-26T01:19:52.298Z,25.50
2023-04-26T01:20:52.227Z,25.52
2023-04-26T01:21:52.277Z,25.49
2023-04-26T01:22:52.292Z,25.49
2023-04-26T01:23:52.285Z,25.53
2023-04-26T01:24:52.300Z,25.52
2023-04-26T01:25:52.281Z,25.52
2023-04-26T01:26:52.290Z,25.52
2023-04-26T01:27:52.344Z,25.50
2023-04-26T01:28:52.710Z,25.50
2023-04-26T01:29:52.309Z,25.50
2023-04-26T01:30:52.434Z,25.52
2023-04-26T01:31:52.364Z,25.49
2023-04-26T01:32:52.427Z,25.52
2023-04-26T01:33:52.339Z,25.52
2023-04-26T01:34:52.297Z,25.52
2023-04-26T01:35:52.306Z,25.50
2023-04-26T01:36:52.305Z,25.50
2023-04-26T01:37:52.310Z,25.52
2023-04-26T01:38:52.712Z,25.50
2023-04-26T01:39:52.321Z,25.49
2023-04-26T01:40:52.317Z,25.52
2023-04-26T01:41:52.313Z,25.52
2023-04-26T01:42:52.320Z,25.52
2023-04-26T01:43:52.345Z,25.52
2023-04-26T01:44:52.373Z,25.50
2023-04-26T01:45:52.440Z,25.52
2023-04-26T01:46:52.388Z,25.52
2023-04-26T01:47:52.428Z,25.52
2023-04-26T01:48:52.694Z,25.50
2023-04-26T01:49:52.381Z,25.53
2023-04-26T01:50:52.393Z,25.49
2023-04-26T01:51:52.409Z,25.52
2023-04-26T01:52:52.430Z,25.53
2023-04-26T01:53:52.415Z,25.50
2023-04-26T01:54:52.425Z,25.49
2023-04-26T01:55:52.491Z,25.50
2023-04-26T01:56:52.478Z,25.52
2023-04-26T01:57:52.453Z,25.50
2023-04-26T01:58:52.802Z,25.54
2023-04-26T01:59:52.480Z,25.52
2023-04-26T02:00:52.485Z,25.50
2023-04-26T02:01:52.574Z,25.50
2023-04-26T02:02:52.553Z,25.50
2023-04-26T02:03:52.512Z,25.49
2023-04-26T02:04:52.574Z,25.52
2023-04-26T02:05:52.518Z,25.50
2023-04-26T02:06:52.553Z,25.53
2023-04-26T02:07:52.533Z,25.52
2023-04-26T02:08:52.818Z,25.52
2023-04-26T02:09:52.559Z,25.52
2023-04-26T02:10:52.529Z,25.53
2023-04-26T02:11:52.560Z,25.53
2023-04-26T02:12:52.525Z,25.54
2023-04-26T02:13:52.601Z,25.54
2023-04-26T02:14:52.556Z,25.54
2023-04-26T02:15:52.557Z,25.52
2023-04-26T02:16:52.582Z,25.53
2023-04-26T02:17:52.594Z,25.53
2023-04-26T02:18:52.765Z,25.53
2023-04-26T02:19:52.566Z,25.53
2023-04-26T02:20:52.570Z,25.52
2023-04-26T02:21:52.573Z,25.54
2023-04-26T02:22:52.578Z,25.53
2023-04-26T02:23:52.580Z,25.54
2023-04-26T02:24:52.579Z,25.53
2023-04-26T02:25:52.579Z,25.52
2023-04-26T02:26:52.585Z,25.54
2023-04-26T02:27:52.584Z,25.56
2023-04-26T02:28:52.795Z,25.52
2023-04-26T02:29:52.583Z,25.54
2023-04-26T02:30:52.595Z,25.52
2023-04-26T02:31:52.728Z,25.54
2023-04-26T02:32:52.676Z,25.52
2023-04-26T02:33:52.713Z,25.50
2023-04-26T02:34:52.664Z,25.56
2023-04-26T02:35:52.659Z,25.53
2023-04-26T02:36:52.663Z,25.56
2023-04-26T02:37:52.713Z,25.54
2023-04-26T02:38:53.105Z,25.54
2023-04-26T02:39:52.748Z,25.53
2023-04-26T02:40:52.762Z,25.53
2023-04-26T02:41:52.797Z,25.53
2023-04-26T02:42:52.832Z,25.54
2023-04-26T02:43:52.836Z,25.53
2023-04-26T02:44:52.826Z,25.54
2023-04-26T02:45:52.838Z,25.54
2023-04-26T02:46:52.933Z,25.56
2023-04-26T02:47:52.989Z,25.54
2023-04-26T02:48:53.150Z,25.56
2023-04-26T02:49:52.907Z,25.54
2023-04-26T02:50:52.990Z,25.53
2023-04-26T02:51:52.947Z,25.53
2023-04-26T02:52:52.971Z,25.56
2023-04-26T02:53:52.998Z,25.53
2023-04-26T02:54:52.967Z,25.53
2023-04-26T02:55:52.991Z,25.56
2023-04-26T02:56:52.988Z,25.56
2023-04-26T02:57:53.009Z,25.54
2023-04-26T02:58:53.219Z,25.54
2023-04-26T02:59:53.041Z,25.58
2023-04-26T03:00:53.092Z,25.54
2023-04-26T03:01:53.101Z,25.54
2023-04-26T03:02:53.346Z,25.54
2023-04-26T03:03:53.209Z,25.54
2023-04-26T03:04:53.096Z,25.54
2023-04-26T03:05:53.118Z,25.53
2023-04-26T03:06:53.153Z,25.56
2023-04-26T03:07:53.204Z,25.53
2023-04-26T03:08:53.455Z,25.54
2023-04-26T03:09:53.245Z,25.53
2023-04-26T03:10:53.261Z,25.54
2023-04-26T03:11:53.283Z,25.56
2023-04-26T03:12:53.326Z,25.53
2023-04-26T03:13:53.342Z,25.54
2023-04-26T03:14:53.349Z,25.52
2023-04-26T03:15:53.346Z,25.54
2023-04-26T03:16:53.676Z,25.53
2023-04-26T03:17:53.413Z,25.53
2023-04-26T03:18:53.699Z,25.56
2023-04-26T03:19:53.402Z,25.54
2023-04-26T03:20:53.422Z,25.54
2023-04-26T03:21:53.404Z,25.58
2023-04-26T03:22:53.407Z,25.54
2023-04-26T03:23:53.388Z,25.56
2023-04-26T03:24:53.394Z,25.56
2023-04-26T03:25:53.401Z,25.54
2023-04-26T03:26:53.395Z,25.54
2023-04-26T03:27:53.399Z,25.56
2023-04-26T03:28:53.642Z,25.56
2023-04-26T03:29:53.394Z,25.56
2023-04-26T03:30:53.398Z,25.58
2023-04-26T03:31:53.487Z,25.53
2023-04-26T03:32:53.448Z,25.58
2023-04-26T03:33:53.467Z,25.56
2023-04-26T03:34:53.495Z,25.54
2023-04-26T03:35:53.520Z,25.56
2023-04-26T03:36:53.522Z,25.59
2023-04-26T03:37:53.766Z,25.56
2023-04-26T03:38:53.827Z,25.54
2023-04-26T03:39:53.639Z,25.56
2023-04-26T03:40:53.613Z,25.56
2023-04-26T03:41:53.637Z,25.54
2023-04-26T03:42:53.658Z,25.56
2023-04-26T03:43:53.668Z,25.56
2023-04-26T03:44:53.688Z,25.53
2023-04-26T03:45:53.755Z,25.56
2023-04-26T03:46:53.755Z,25.54
2023-04-26T03:47:53.826Z,25.58
2023-04-26T03:48:54.118Z,25.56
2023-04-26T03:49:53.832Z,25.58
2023-04-26T03:50:53.856Z,25.58
2023-04-26T03:51:53.891Z,25.54
2023-04-26T03:52:53.940Z,25.58
2023-04-26T03:53:53.998Z,25.59
2023-04-26T03:54:54.092Z,25.54
2023-04-26T03:55:54.121Z,25.56
2023-04-26T03:56:54.202Z,25.58
2023-04-26T03:57:54.198Z,25.59
2023-04-26T03:58:54.359Z,25.58
2023-04-26T03:59:54.212Z,25.58
2023-04-26T04:00:54.233Z,25.58
2023-04-26T04:01:54.235Z,25.56
2023-04-26T04:02:54.379Z,25.59
2023-04-26T04:03:54.578Z,25.59
2023-04-26T04:04:54.468Z,25.59
2023-04-26T04:05:54.253Z,25.59
2023-04-26T04:06:54.259Z,25.56
2023-04-26T04:07:54.255Z,25.58
2023-04-26T04:08:54.586Z,25.59
2023-04-26T04:09:54.299Z,25.59
2023-04-26T04:10:54.434Z,25.59
2023-04-26T04:11:54.385Z,25.58
2023-04-26T04:12:54.424Z,25.56
2023-04-26T04:13:54.447Z,25.56
2023-04-26T04:14:54.473Z,25.60
2023-04-26T04:15:54.539Z,25.59
2023-04-26T04:16:54.532Z,25.59
2023-04-26T04:17:54.679Z,25.58
2023-04-26T04:18:54.931Z,25.59
2023-04-26T04:19:54.673Z,25.56
2023-04-26T04:20:54.707Z,25.59
2023-04-26T04:21:54.724Z,25.59
2023-04-26T04:22:54.744Z,25.58
2023-04-26T04:23:54.746Z,25.58
2023-04-26T04:24:54.793Z,25.59
2023-04-26T04:25:54.773Z,25.58
2023-04-26T04:26:54.818Z,25.59
2023-04-26T04:27:54.822Z,25.56
2023-04-26T04:28:55.137Z,25.58
2023-04-26T04:29:54.868Z,25.56
2023-04-26T04:30:54.932Z,25.60
2023-04-26T04:31:54.912Z,25.59
2023-04-26T04:32:54.953Z,25.59
2023-04-26T04:33:54.932Z,25.54
2023-04-26T04:34:54.973Z,25.56
2023-04-26T04:35:54.994Z,25.59
2023-04-26T04:36:55.057Z,25.59
2023-04-26T04:37:55.091Z,25.60
2023-04-26T04:38:55.176Z,25.58
2023-04-26T04:39:55.185Z,25.58
2023-04-26T04:40:55.241Z,25.58
2023-04-26T04:41:55.372Z,25.60
2023-04-26T04:42:55.480Z,25.58
2023-04-26T04:43:55.398Z,25.56
2023-04-26T04:44:55.437Z,25.59
2023-04-26T04:45:55.430Z,25.58
2023-04-26T04:46:55.475Z,25.59
2023-04-26T04:47:55.557Z,25.59
2023-04-26T04:48:55.435Z,25.60
2023-04-26T04:49:55.495Z,25.58
2023-04-26T04:50:55.507Z,25.58
2023-04-26T04:51:55.538Z,25.56
2023-04-26T04:52:55.579Z,25.58
2023-04-26T04:53:55.586Z,25.56
2023-04-26T04:54:55.622Z,25.58
2023-04-26T04:55:55.674Z,25.59
2023-04-26T04:56:55.714Z,25.56
2023-04-26T04:57:55.740Z,25.59
2023-04-26T04:58:55.847Z,25.58
2023-04-26T04:59:55.824Z,25.59
2023-04-26T05:00:55.896Z,25.59
2023-04-26T05:01:55.937Z,25.58
2023-04-26T05:02:56.103Z,25.59
2023-04-26T05:03:56.284Z,25.59
2023-04-26T05:04:56.087Z,25.59
2023-04-26T05:05:56.000Z,25.60
2023-04-26T05:06:56.005Z,25.58
2023-04-26T05:07:56.031Z,25.60
2023-04-26T05:08:56.039Z,25.59
2023-04-26T05:09:56.052Z,25.60
2023-04-26T05:10:56.058Z,25.60
2023-04-26T05:11:56.073Z,25.59
2023-04-26T05:12:56.096Z,25.62
2023-04-26T05:13:56.312Z,25.62
2023-04-26T05:14:56.251Z,25.62
2023-04-26T05:15:56.199Z,25.60
2023-04-26T05:16:56.650Z,25.60
2023-04-26T05:17:56.301Z,25.62
2023-04-26T05:18:56.255Z,25.60
2023-04-26T05:19:56.259Z,25.62
2023-04-26T05:20:57.291Z,25.63
2023-04-26T05:21:56.290Z,25.60
2023-04-26T05:22:56.318Z,25.62
2023-04-26T05:23:56.380Z,25.62
2023-04-26T05:24:56.416Z,25.65
2023-04-26T05:25:56.461Z,25.63
2023-04-26T05:26:56.564Z,25.63
2023-04-26T05:27:56.475Z,25.65
2023-04-26T05:28:56.520Z,25.66
2023-04-26T05:29:56.569Z,25.69
2023-04-26T05:30:56.681Z,25.67
2023-04-26T05:31:56.715Z,25.69
2023-04-26T05:32:56.807Z,25.70
2023-04-26T05:33:56.831Z,25.69
2023-04-26T05:34:57.558Z,25.72
2023-04-26T05:35:56.941Z,25.73
2023-04-26T05:36:57.093Z,25.73
2023-04-26T05:37:57.054Z,25.73
2023-04-26T05:38:57.105Z,25.75
2023-04-26T05:39:57.556Z,25.76
2023-04-26T05:40:57.193Z,25.76
2023-04-26T05:41:57.229Z,25.79
2023-04-26T05:42:57.252Z,25.79
2023-04-26T05:43:57.294Z,25.79
2023-04-26T05:44:57.310Z,25.79
2023-04-26T05:45:57.458Z,25.80
2023-04-26T05:46:57.495Z,25.81
2023-04-26T05:47:57.488Z,25.80
2023-04-26T05:48:57.520Z,25.81
2023-04-26T05:49:58.065Z,25.86
2023-04-26T05:50:57.631Z,25.84
2023-04-26T05:51:57.770Z,25.84
2023-04-26T05:52:57.732Z,25.84
2023-04-26T05:53:58.065Z,25.84
2023-04-26T05:54:58.077Z,25.88
2023-04-26T05:55:57.890Z,25.87
2023-04-26T05:56:59.313Z,25.90
2023-04-26T05:57:58.006Z,25.88
2023-04-26T05:58:58.573Z,25.87
2023-04-26T05:59:58.124Z,25.90
2023-04-26T06:00:58.187Z,25.88
2023-04-26T06:01:58.649Z,25.87
2023-04-26T06:02:58.544Z,25.90
2023-04-26T06:04:00.536Z,25.88
2023-04-26T06:04:58.740Z,25.88
2023-04-26T06:05:58.634Z,25.88
2023-04-26T06:06:58.372Z,25.90
2023-04-26T06:07:58.568Z,25.88
2023-04-26T06:08:58.333Z,25.87
2023-04-26T06:09:58.633Z,25.87
2023-04-26T06:10:58.571Z,25.86
2023-04-26T06:11:58.310Z,25.86
2023-04-26T06:12:58.295Z,25.86
2023-04-26T06:13:58.296Z,25.86
2023-04-26T06:14:58.567Z,25.86
2023-04-26T06:15:58.288Z,25.84
2023-04-26T06:16:58.373Z,25.86
2023-04-26T06:17:58.366Z,25.84
2023-04-26T06:18:58.311Z,25.83
2023-04-26T06:19:58.572Z,25.86
2023-04-26T06:20:58.352Z,25.84
2023-04-26T06:21:58.410Z,25.83
2023-04-26T06:22:58.465Z,25.86
2023-04-26T06:23:58.705Z,25.83
2023-04-26T06:24:58.616Z,25.81
2023-04-26T06:25:59.074Z,25.83
2023-04-26T06:26:58.685Z,25.84
2023-04-26T06:27:58.783Z,25.84
2023-04-26T06:28:58.804Z,25.84
2023-04-26T06:29:58.881Z,25.83
2023-04-26T06:30:59.108Z,25.86
2023-04-26T06:31:59.004Z,25.83
2023-04-26T06:32:59.297Z,25.83
2023-04-26T06:33:59.144Z,25.84
2023-04-26T06:34:59.227Z,25.81
2023-04-26T06:35:59.576Z,25.84
2023-04-26T06:36:59.575Z,25.81
2023-04-26T06:37:59.386Z,25.81
2023-04-26T06:38:59.459Z,25.84
2023-04-26T06:39:59.549Z,25.84
2023-04-26T06:41:00.110Z,25.83
2023-04-26T06:41:59.639Z,25.83
2023-04-26T06:42:59.715Z,25.86
2023-04-26T06:43:59.788Z,25.83
2023-04-26T06:44:59.832Z,25.84
2023-04-26T06:46:00.110Z,25.84
2023-04-26T06:46:59.946Z,25.83
2023-04-26T06:48:00.055Z,25.81
2023-04-26T06:49:00.087Z,25.84
2023-04-26T06:50:00.595Z,25.83
2023-04-26T06:51:00.720Z,25.84
2023-04-26T06:52:00.290Z,25.84
2023-04-26T06:53:00.378Z,25.83
2023-04-26T06:54:00.405Z,25.84
2023-04-26T06:55:00.586Z,25.83
2023-04-26T06:56:00.525Z,25.83
2023-04-26T06:57:01.500Z,25.84
2023-04-26T06:58:00.664Z,25.84
2023-04-26T06:59:00.739Z,25.84
2023-04-26T07:00:01.108Z,25.83
2023-04-26T07:01:01.124Z,25.83
2023-04-26T07:02:01.026Z,25.84
2023-04-26T07:03:01.097Z,25.83
2023-04-26T07:04:01.116Z,25.86
2023-04-26T07:05:01.248Z,25.86
2023-04-26T07:06:01.164Z,25.86
2023-04-26T07:07:01.397Z,25.84
2023-04-26T07:08:02.021Z,25.86
2023-04-26T07:09:01.697Z,25.86
2023-04-26T07:10:01.819Z,25.86
2023-04-26T07:11:01.466Z,25.86
2023-04-26T07:12:01.541Z,25.84
2023-04-26T07:13:02.276Z,25.84
2023-04-26T07:14:01.658Z,25.87
2023-04-26T07:15:01.725Z,25.86
2023-04-26T07:16:01.790Z,25.86
2023-04-26T07:17:01.836Z,25.87
2023-04-26T07:18:02.163Z,25.84
2023-04-26T07:19:01.966Z,25.83
2023-04-26T07:20:02.063Z,25.84
2023-04-26T07:21:02.090Z,25.84
2023-04-26T07:22:02.149Z,25.87
2023-04-26T07:23:02.616Z,25.86
2023-04-26T07:24:09.665Z,25.86
2023-04-26T07:25:02.276Z,25.84
2023-04-26T07:26:02.279Z,25.84
2023-04-26T07:27:03.099Z,25.86
2023-04-26T07:28:02.608Z,25.86
2023-04-26T07:29:02.275Z,25.88
2023-04-26T07:30:02.584Z,25.86
2023-04-26T07:31:02.416Z,25.84
2023-04-26T07:32:02.295Z,25.87
2023-04-26T07:33:02.760Z,25.87
2023-04-26T07:34:02.610Z,25.86
2023-04-26T07:35:02.243Z,25.84
2023-04-26T07:36:02.230Z,25.87
2023-04-26T07:37:02.253Z,25.90
2023-04-26T07:38:02.304Z,25.91
2023-04-26T07:39:02.624Z,25.96
2023-04-26T07:40:02.431Z,25.94
2023-04-26T07:41:02.610Z,25.98
2023-04-26T07:42:02.890Z,26.00
2023-04-26T07:43:02.528Z,26.00
2023-04-26T07:44:02.575Z,26.03
2023-04-26T07:45:03.100Z,26.03
2023-04-26T07:46:03.131Z,26.04
2023-04-26T07:47:02.733Z,26.05
2023-04-26T07:48:02.846Z,26.05
2023-04-26T07:49:02.839Z,26.07
2023-04-26T07:50:02.910Z,26.09
2023-04-26T07:51:03.109Z,26.11
2023-04-26T07:52:02.948Z,26.14
2023-04-26T07:53:03.019Z,26.13
2023-04-26T07:54:03.069Z,26.13
2023-04-26T07:55:03.137Z,26.14
2023-04-26T07:56:03.616Z,26.14
2023-04-26T07:57:03.150Z,26.17
2023-04-26T07:58:03.176Z,26.21
2023-04-26T07:59:03.265Z,26.18
2023-04-26T08:00:03.871Z,26.20
2023-04-26T08:01:03.644Z,26.17
2023-04-26T08:02:03.740Z,26.14
2023-04-26T08:03:03.776Z,26.14
2023-04-26T08:04:03.854Z,26.08
2023-04-26T08:05:03.950Z,26.07
2023-04-26T08:06:04.265Z,26.03
2023-04-26T08:07:03.726Z,25.98
2023-04-26T08:08:03.794Z,25.96
2023-04-26T08:09:03.860Z,25.93
2023-04-26T08:10:03.939Z,25.93
2023-04-26T08:11:04.149Z,25.91
2023-04-26T08:12:04.181Z,25.87
2023-04-26T08:13:04.148Z,25.86
2023-04-26T08:14:04.221Z,25.84
2023-04-26T08:15:04.690Z,25.81
2023-04-26T08:16:04.611Z,25.79
2023-04-26T08:17:04.338Z,25.77
2023-04-26T08:18:04.354Z,25.79
2023-04-26T08:19:04.386Z,25.77
2023-04-26T08:20:04.420Z,25.77
2023-04-26T08:21:04.616Z,25.79
2023-04-26T08:22:05.108Z,25.80
2023-04-26T08:23:04.524Z,25.79
2023-04-26T08:24:04.568Z,25.79
2023-04-26T08:25:05.138Z,25.77
2023-04-26T08:26:04.651Z,25.79
2023-04-26T08:27:04.718Z,25.77
2023-04-26T08:28:04.699Z,25.79
2023-04-26T08:29:04.700Z,25.79
2023-04-26T08:30:04.705Z,25.79
2023-04-26T08:31:05.234Z,25.77
2023-04-26T08:32:05.094Z,25.79
2023-04-26T08:33:04.792Z,25.81
2023-04-26T08:34:04.806Z,25.80
2023-04-26T08:35:04.868Z,25.84
2023-04-26T08:36:05.132Z,25.87
2023-04-26T08:37:04.980Z,25.90
2023-04-26T08:38:05.025Z,25.91
2023-04-26T08:39:05.084Z,25.94
2023-04-26T08:40:05.161Z,25.96
2023-04-26T08:41:05.616Z,25.94
2023-04-26T08:42:05.258Z,25.93
2023-04-26T08:43:05.372Z,25.91
2023-04-26T08:44:05.533Z,25.93
2023-04-26T08:45:05.463Z,25.93
2023-04-26T08:46:06.377Z,25.86
2023-04-26T08:47:05.536Z,25.84
2023-04-26T08:48:05.993Z,25.81
2023-04-26T08:49:05.550Z,25.84
2023-04-26T08:50:05.568Z,25.84
2023-04-26T08:51:05.637Z,25.88
2023-04-26T08:52:05.603Z,25.90
2023-04-26T08:53:05.661Z,25.97
2023-04-26T08:54:05.720Z,26.03
2023-04-26T08:55:05.758Z,26.07
2023-04-26T08:56:06.129Z,26.09
2023-04-26T08:57:05.890Z,26.17
2023-04-26T08:58:05.938Z,26.24
2023-04-26T08:59:06.010Z,26.30
2023-04-26T09:00:06.071Z,26.34
2023-04-26T09:01:06.127Z,26.42
2023-04-26T09:02:06.153Z,26.46
2023-04-26T09:03:06.317Z,26.49
2023-04-26T09:04:06.299Z,26.55
2023-04-26T09:05:06.310Z,26.60
2023-04-26T09:06:06.640Z,26.66
2023-04-26T09:07:06.236Z,26.69
2023-04-26T09:08:06.263Z,26.73
2023-04-26T09:09:06.261Z,26.80
2023-04-26T09:10:06.267Z,26.83
2023-04-26T09:11:06.643Z,26.87
2023-04-26T09:12:06.282Z,26.90
2023-04-26T09:13:06.284Z,26.93
2023-04-26T09:14:06.287Z,26.96
2023-04-26T09:15:06.316Z,27.00
2023-04-26T09:16:06.320Z,27.03
2023-04-26T09:17:06.270Z,27.08
2023-04-26T09:18:06.285Z,27.08
2023-04-26T09:19:06.247Z,27.13
2023-04-26T09:20:07.939Z,27.14
2023-04-26T09:21:06.635Z,27.17
2023-04-26T09:22:06.207Z,27.21
2023-04-26T09:23:06.188Z,27.23
2023-04-26T09:24:06.657Z,27.27
2023-04-26T09:25:06.143Z,27.30
2023-04-26T09:26:07.174Z,27.30
2023-04-26T09:27:06.116Z,27.34
2023-04-26T09:28:06.087Z,27.30
2023-04-26T09:29:06.135Z,27.21
2023-04-26T09:30:06.081Z,27.07
2023-04-26T09:31:06.349Z,26.93
2023-04-26T09:32:06.079Z,26.72
2023-04-26T09:33:06.768Z,26.55
2023-04-26T09:34:06.047Z,26.41
2023-04-26T09:35:06.042Z,26.27
2023-04-26T09:36:07.139Z,26.22
2023-04-26T09:37:06.057Z,26.20
2023-04-26T09:38:11.132Z,26.15
2023-04-26T09:39:06.068Z,26.14
2023-04-26T09:40:06.056Z,26.11
2023-04-26T09:41:06.156Z,26.13
2023-04-26T09:42:06.067Z,26.13
2023-04-26T09:43:06.078Z,26.15
2023-04-26T09:44:06.067Z,26.17
2023-04-26T09:45:06.089Z,26.15
2023-04-26T09:46:06.140Z,26.20
2023-04-26T09:47:06.195Z,26.21
2023-04-26T09:48:06.172Z,26.21
2023-04-26T09:49:06.062Z,26.27
2023-04-26T09:50:06.150Z,26.25
2023-04-26T09:51:06.142Z,26.27
2023-04-26T09:52:06.052Z,26.30
2023-04-26T09:53:06.047Z,26.31
2023-04-26T09:54:06.052Z,26.31
2023-04-26T09:55:06.056Z,26.32
2023-04-26T09:56:06.153Z,26.35
2023-04-26T09:57:06.040Z,26.35
2023-04-26T09:58:06.037Z,26.38
2023-04-26T09:59:06.054Z,26.38
2023-04-26T10:00:06.147Z,26.41
2023-04-26T10:01:06.189Z,26.41
2023-04-26T10:02:06.043Z,26.43
2023-04-26T10:03:06.544Z,26.43
2023-04-26T10:04:06.261Z,26.48
2023-04-26T10:05:06.222Z,26.46
2023-04-26T10:06:06.655Z,26.49
2023-04-26T10:07:06.365Z,26.53
2023-04-26T10:08:06.394Z,26.53
2023-04-26T10:09:06.446Z,26.52
2023-04-26T10:10:06.505Z,26.53
2023-04-26T10:11:06.560Z,26.52
2023-04-26T10:12:09.805Z,26.52
2023-04-26T10:13:06.611Z,26.55
2023-04-26T10:14:06.604Z,26.53
2023-04-26T10:15:06.598Z,26.55
2023-04-26T10:16:06.846Z,26.55
2023-04-26T10:17:06.556Z,26.55
2023-04-26T10:18:06.689Z,26.58
2023-04-26T10:19:06.616Z,26.53
2023-04-26T10:20:06.545Z,26.55
2023-04-26T10:21:06.532Z,26.58
2023-04-26T10:22:06.551Z,26.60
2023-04-26T10:23:06.652Z,26.62
2023-04-26T10:24:06.657Z,26.64
2023-04-26T10:25:06.720Z,26.60
2023-04-26T10:26:07.161Z,26.62
2023-04-26T10:27:06.817Z,26.62
2023-04-26T10:28:06.874Z,26.62
2023-04-26T10:29:07.284Z,26.62
2023-04-26T10:30:07.391Z,26.64
2023-04-26T10:31:07.531Z,26.64
2023-04-26T10:32:07.649Z,26.68
2023-04-26T10:33:07.542Z,26.68
2023-04-26T10:34:07.580Z,26.69
2023-04-26T10:35:07.582Z,26.70
2023-04-26T10:36:07.621Z,26.72
2023-04-26T10:37:07.372Z,26.75
2023-04-26T10:38:07.920Z,26.78
2023-04-26T10:39:07.702Z,26.78
2023-04-26T10:40:07.806Z,26.78
2023-04-26T10:41:07.750Z,26.78
2023-04-26T10:42:07.774Z,26.79
2023-04-26T10:43:08.036Z,26.78
2023-04-26T10:44:07.809Z,26.78
2023-04-26T10:45:07.490Z,26.78
2023-04-26T10:46:08.031Z,26.78
2023-04-26T10:47:07.961Z,26.80
2023-04-26T10:48:08.040Z,26.80
2023-04-26T10:49:08.118Z,26.80
2023-04-26T10:50:07.706Z,26.80
2023-04-26T10:51:08.221Z,26.82
2023-04-26T10:52:07.686Z,26.78
2023-04-26T10:53:08.046Z,26.80
2023-04-26T10:54:07.737Z,26.79
2023-04-26T10:55:08.027Z,26.82
2023-04-26T10:56:08.189Z,26.85
2023-04-26T10:57:07.816Z,26.85
2023-04-26T10:58:08.170Z,26.83
2023-04-26T10:59:22.469Z,26.87
2023-04-26T11:00:07.852Z,26.86
2023-04-26T11:01:07.866Z,26.86
2023-04-26T11:02:07.828Z,26.90
2023-04-26T11:03:08.316Z,26.87
2023-04-26T11:04:07.869Z,26.73
2023-04-26T11:05:08.173Z,26.59
2023-04-26T11:06:08.182Z,26.39
2023-04-26T11:07:07.859Z,26.25
2023-04-26T11:08:07.848Z,26.08
2023-04-26T11:09:08.169Z,25.90
2023-04-26T11:10:07.810Z,25.79
2023-04-26T11:11:08.191Z,25.73
2023-04-26T11:12:08.634Z,25.75
2023-04-26T11:13:07.836Z,25.70
2023-04-26T11:14:07.825Z,25.73
2023-04-26T11:15:07.836Z,25.77
2023-04-26T11:16:08.106Z,25.81
2023-04-26T11:17:08.506Z,25.88
2023-04-26T11:18:08.104Z,25.93
2023-04-26T11:19:07.807Z,25.98
2023-04-26T11:20:07.816Z,26.05
2023-04-26T11:21:07.790Z,26.11
2023-04-26T11:22:07.771Z,26.18
2023-04-26T11:23:07.899Z,26.24
2023-04-26T11:24:07.764Z,26.31
2023-04-26T11:25:07.808Z,26.34
2023-04-26T11:26:08.217Z,26.36
2023-04-26T11:27:07.906Z,26.42
2023-04-26T11:28:07.942Z,26.45
2023-04-26T11:29:08.000Z,26.46
2023-04-26T11:30:08.026Z,26.51
2023-04-26T11:31:08.268Z,26.55
2023-04-26T11:32:08.763Z,26.56
2023-04-26T11:33:08.166Z,26.62
2023-04-26T11:34:08.138Z,26.62
2023-04-26T11:35:08.154Z,26.63
2023-04-26T11:36:08.687Z,26.64
2023-04-26T11:37:08.205Z,26.68
2023-04-26T11:38:08.227Z,26.69
2023-04-26T11:39:08.415Z,26.73
2023-04-26T11:40:08.263Z,26.69
2023-04-26T11:41:08.296Z,26.72
2023-04-26T11:42:08.303Z,26.72
2023-04-26T11:43:08.327Z,26.76
2023-04-26T11:44:08.372Z,26.75
2023-04-26T11:45:08.703Z,26.75
2023-04-26T11:46:08.422Z,26.78
2023-04-26T11:47:08.372Z,26.76
2023-04-26T11:48:08.412Z,26.73
2023-04-26T11:49:08.371Z,26.78
2023-04-26T11:50:08.355Z,26.79
2023-04-26T11:51:08.712Z,26.78
2023-04-26T11:52:08.374Z,26.79
2023-04-26T11:53:08.421Z,26.78
2023-04-26T11:54:08.396Z,26.80
2023-04-26T11:55:08.513Z,26.78
2023-04-26T11:56:08.405Z,26.79
2023-04-26T11:57:08.437Z,26.80
2023-04-26T11:58:08.443Z,26.80
2023-04-26T11:59:08.449Z,26.79
2023-04-26T12:00:08.706Z,26.80
2023-04-26T12:01:08.722Z,26.79
2023-04-26T12:02:08.607Z,26.82
2023-04-26T12:03:08.664Z,26.80
2023-04-26T12:04:08.893Z,26.82
2023-04-26T12:05:08.753Z,26.78
2023-04-26T12:06:08.456Z,26.80
2023-04-26T12:07:08.501Z,26.79
2023-04-26T12:08:08.505Z,26.73
2023-04-26T12:09:08.562Z,26.66
2023-04-26T12:10:08.566Z,26.56
2023-04-26T12:11:08.732Z,26.48
2023-04-26T12:12:09.268Z,26.30
2023-04-26T12:13:08.743Z,26.17
2023-04-26T12:14:08.785Z,26.04
2023-04-26T12:15:08.820Z,25.87
2023-04-26T12:16:18.567Z,25.76
2023-04-26T12:17:08.941Z,25.63
2023-04-26T12:18:09.280Z,25.58
2023-04-26T12:19:08.904Z,25.52
2023-04-26T12:20:08.872Z,25.46
2023-04-26T12:21:08.908Z,25.42
2023-04-26T12:22:09.236Z,25.45
2023-04-26T12:23:08.893Z,25.48
2023-04-26T12:24:08.889Z,25.52
2023-04-26T12:25:08.928Z,25.58
2023-04-26T12:26:08.897Z,25.63
2023-04-26T12:27:09.363Z,25.70
2023-04-26T12:28:08.918Z,25.75
2023-04-26T12:29:08.895Z,25.80
2023-04-26T12:30:08.890Z,25.83
2023-04-26T12:31:08.963Z,25.93
2023-04-26T12:32:08.918Z,25.96
2023-04-26T12:33:17.109Z,26.00
2023-04-26T12:34:08.867Z,26.03
2023-04-26T12:35:08.860Z,26.09
2023-04-26T12:36:08.912Z,26.17
2023-04-26T12:37:08.854Z,26.18
2023-04-26T12:38:08.858Z,26.20
2023-04-26T12:39:08.824Z,26.25
2023-04-26T12:40:08.814Z,26.30
2023-04-26T12:41:08.800Z,26.32
2023-04-26T12:42:08.803Z,26.38
2023-04-26T12:43:08.830Z,26.41
2023-04-26T12:44:08.762Z,26.42
2023-04-26T12:45:08.753Z,26.41
2023-04-26T12:46:09.372Z,26.49
2023-04-26T12:47:09.298Z,26.49
2023-04-26T12:48:08.846Z,26.52
2023-04-26T12:49:08.758Z,26.53
2023-04-26T12:50:08.687Z,26.53
2023-04-26T12:51:08.677Z,26.56
2023-04-26T12:52:10.880Z,26.58
2023-04-26T12:53:08.655Z,26.60